Time;durP1;ratioP1;P1;durP2;ratioP2;P2;SDS_P1;SDS_P2;PMS_P1;PMS_P2;Temp;Humidity;BMP_temperature;BMP_pressure;BME280_temperature;BME280_humidity;BME280_pressure;Samples;Min_cycle;Max_cycle;Signal;HPM_P1;HPM_P2
2023/07/10 00:00:04;;;;;;;0.00;0.00;;;;;;;;;;5063400;28;20471;-76
2023/07/10 00:02:30;;;;;;;0.00;0.00;;;;;;;;;;5086803;28;20245;-76
2023/07/10 00:04:56;;;;;;;0.00;0.00;;;;;;;;;;5067478;28;20381;-76
2023/07/10 00:07:23;;;;;;;0.00;0.00;;;;;;;;;;5089352;28;20254;-76
2023/07/10 00:09:50;;;;;;;0.00;0.00;;;;;;;;;;5067262;28;20406;-76
2023/07/10 00:12:18;;;;;;;0.03;0.03;;;;;;;;;;5089252;28;20238;-76
2023/07/10 00:14:45;;;;;;;0.00;0.00;;;;;;;;;;5067039;28;20235;-76
2023/07/10 00:17:14;;;;;;;0.30;0.30;;;;;;;;;;5089207;28;20321;-77
2023/07/10 00:19:41;;;;;;;0.00;0.00;;;;;;;;;;5066919;28;20260;-77
2023/07/10 00:22:08;;;;;;;0.00;0.00;;;;;;;;;;5088949;28;20234;-77
2023/07/10 00:24:34;;;;;;;0.10;0.10;;;;;;;;;;5066805;28;20235;-77
2023/07/10 00:27:00;;;;;;;1.95;0.75;;;;;;;;;;5087085;28;20250;-76
2023/07/10 00:29:31;;;;;;;0.00;0.00;;;;;;;;;;5068344;28;20271;-77
2023/07/10 00:31:57;;;;;;;0.00;0.00;;;;;;;;;;5086200;28;20245;-77
2023/07/10 00:34:25;;;;;;;0.00;0.00;;;;;;;;;;5069434;28;20402;-77
2023/07/10 00:36:52;;;;;;;0.00;0.00;;;;;;;;;;5084585;28;20467;-77
2023/07/10 00:39:20;;;;;;;0.08;0.08;;;;;;;;;;5070655;28;20204;-77
2023/07/10 00:41:49;;;;;;;0.20;0.20;;;;;;;;;;5083066;28;20238;-77
2023/07/10 00:44:15;;;;;;;0.00;0.00;;;;;;;;;;5071193;28;20251;-77
2023/07/10 00:46:46;;;;;;;0.00;0.00;;;;;;;;;;5081531;28;20250;-77
2023/07/10 00:49:16;;;;;;;0.00;0.00;;;;;;;;;;5072057;28;20228;-77
2023/07/10 00:51:49;;;;;;;0.00;0.00;;;;;;;;;;5081898;28;20312;-77
2023/07/10 00:54:21;;;;;;;0.00;0.00;;;;;;;;;;5071229;28;20227;-77
2023/07/10 00:56:47;;;;;;;0.00;0.00;;;;;;;;;;5082924;28;20310;-77
2023/07/10 00:59:21;;;;;;;0.05;0.05;;;;;;;;;;5071646;28;20276;-77
2023/07/10 01:02:06;;;;;;;0.10;0.10;;;;;;;;;;5082615;28;20250;-77
2023/07/10 01:04:33;;;;;;;0.00;0.00;;;;;;;;;;5066540;28;20231;-77
2023/07/10 01:07:01;;;;;;;0.00;0.00;;;;;;;;;;5086330;28;20441;-76
2023/07/10 01:09:28;;;;;;;0.00;0.00;;;;;;;;;;5068179;28;20453;-77
2023/07/10 01:11:54;;;;;;;0.00;0.00;;;;;;;;;;5084414;28;20244;-77
2023/07/10 01:14:22;;;;;;;0.00;0.00;;;;;;;;;;5068967;28;20235;-77
2023/07/10 01:16:48;;;;;;;0.00;0.00;;;;;;;;;;5082932;28;20238;-77
2023/07/10 01:19:17;;;;;;;0.00;0.00;;;;;;;;;;5070705;28;20204;-77
2023/07/10 01:21:45;;;;;;;0.00;0.00;;;;;;;;;;5081534;28;20242;-77
2023/07/10 01:24:12;;;;;;;0.00;0.00;;;;;;;;;;5071933;28;20224;-77
2023/07/10 01:26:39;;;;;;;0.00;0.00;;;;;;;;;;5079983;28;20417;-76
2023/07/10 01:29:12;;;;;;;0.00;0.00;;;;;;;;;;5073096;28;20204;-77
2023/07/10 01:31:39;;;;;;;0.00;0.00;;;;;;;;;;5079926;28;20453;-77
2023/07/10 01:34:06;;;;;;;0.00;0.00;;;;;;;;;;5072997;28;20500;-76
2023/07/10 01:36:35;;;;;;;0.00;0.00;;;;;;;;;;5078351;28;20242;-77
2023/07/10 01:39:07;;;;;;;0.00;0.00;;;;;;;;;;5074276;28;20211;-76
2023/07/10 01:41:36;;;;;;;0.00;0.00;;;;;;;;;;5078302;28;20249;-77
2023/07/10 01:44:03;;;;;;;0.10;0.10;;;;;;;;;;5073780;28;20265;-77
2023/07/10 01:46:29;;;;;;;0.00;0.00;;;;;;;;;;5077234;28;20239;-77
2023/07/10 01:48:58;;;;;;;0.00;0.00;;;;;;;;;;5075276;28;20204;-77
2023/07/10 01:51:25;;;;;;;0.00;0.00;;;;;;;;;;5075689;28;20310;-77
2023/07/10 01:53:51;;;;;;;0.00;0.00;;;;;;;;;;5076695;28;20287;-77
2023/07/10 01:56:21;;;;;;;0.00;0.00;;;;;;;;;;5073697;28;20301;-78
2023/07/10 01:58:47;;;;;;;0.00;0.00;;;;;;;;;;5078097;28;20364;-77
2023/07/10 02:01:13;;;;;;;0.00;0.00;;;;;;;;;;5072529;28;20245;-77
2023/07/10 02:03:40;;;;;;;0.00;0.00;;;;;;;;;;5079698;28;20227;-77
2023/07/10 02:06:06;;;;;;;0.00;0.00;;;;;;;;;;5070372;28;20309;-77
2023/07/10 02:08:32;;;;;;;0.00;0.00;;;;;;;;;;5081375;28;20204;-77
2023/07/10 02:10:59;;;;;;;0.00;0.00;;;;;;;;;;5068603;28;20503;-77
2023/07/10 02:13:26;;;;;;;0.00;0.00;;;;;;;;;;5083203;28;20232;-78
2023/07/10 02:15:53;;;;;;;0.00;0.00;;;;;;;;;;5066699;28;20305;-78
2023/07/10 02:18:19;;;;;;;0.00;0.00;;;;;;;;;;5085069;28;20231;-78
2023/07/10 02:20:46;;;;;;;0.00;0.00;;;;;;;;;;5064826;28;20246;-78
2023/07/10 02:23:12;;;;;;;0.00;0.00;;;;;;;;;;5086703;28;20397;-77
2023/07/10 02:25:38;;;;;;;0.00;0.00;;;;;;;;;;5061889;28;20318;-78
2023/07/10 02:28:05;;;;;;;0.28;0.28;;;;;;;;;;5088458;28;20236;-78
2023/07/10 02:30:33;;;;;;;0.00;0.00;;;;;;;;;;5059597;28;20246;-77
2023/07/10 02:33:00;;;;;;;0.00;0.00;;;;;;;;;;5090342;28;20217;-78
2023/07/10 02:35:26;;;;;;;0.00;0.00;;;;;;;;;;5059266;28;20276;-78
2023/07/10 02:37:53;;;;;;;0.00;0.00;;;;;;;;;;5091752;28;20516;-77
2023/07/10 02:40:19;;;;;;;0.00;0.00;;;;;;;;;;5057213;28;20247;-77
2023/07/10 02:42:45;;;;;;;0.00;0.00;;;;;;;;;;5093126;28;20267;-77
2023/07/10 02:45:13;;;;;;;0.00;0.00;;;;;;;;;;5055324;28;20259;-75
2023/07/10 02:47:40;;;;;;;0.00;0.00;;;;;;;;;;5095338;28;20357;-77
2023/07/10 02:50:09;;;;;;;0.00;0.00;;;;;;;;;;5064165;28;20243;-77
2023/07/10 02:52:36;;;;;;;0.00;0.00;;;;;;;;;;5052818;28;20204;-77
2023/07/10 02:55:02;;;;;;;0.00;0.00;;;;;;;;;;5064069;28;20235;-77
2023/07/10 02:57:28;;;;;;;0.00;0.00;;;;;;;;;;5086196;28;20248;-77
2023/07/10 02:59:55;;;;;;;0.00;0.00;;;;;;;;;;5064170;28;20362;-77
2023/07/10 03:02:21;;;;;;;0.00;0.00;;;;;;;;;;5086100;28;20305;-77
2023/07/10 03:04:49;;;;;;;0.00;0.00;;;;;;;;;;5063829;28;20314;-77
2023/07/10 03:07:15;;;;;;;0.00;0.00;;;;;;;;;;5086117;28;20482;-77
2023/07/10 03:09:42;;;;;;;0.00;0.00;;;;;;;;;;5063941;28;20404;-77
2023/07/10 03:12:09;;;;;;;0.00;0.00;;;;;;;;;;5085890;28;20238;-77
2023/07/10 03:14:35;;;;;;;0.00;0.00;;;;;;;;;;5064055;28;20271;-77
2023/07/10 03:17:03;;;;;;;0.00;0.00;;;;;;;;;;5084185;28;20479;-77
2023/07/10 03:19:30;;;;;;;0.10;0.10;;;;;;;;;;5064978;28;20208;-77
2023/07/10 03:21:58;;;;;;;1.10;1.10;;;;;;;;;;5082660;28;20264;-77
2023/07/10 03:24:25;;;;;;;0.10;0.10;;;;;;;;;;5065969;28;20291;-77
2023/07/10 03:26:51;;;;;;;0.00;0.00;;;;;;;;;;5080979;28;20245;-77
2023/07/10 03:29:18;;;;;;;0.20;0.20;;;;;;;;;;5068107;28;20231;-77
2023/07/10 03:31:44;;;;;;;0.00;0.00;;;;;;;;;;5079027;28;20289;-77
2023/07/10 03:34:12;;;;;;;0.00;0.00;;;;;;;;;;5069982;28;20200;-77
2023/07/10 03:36:38;;;;;;;0.00;0.00;;;;;;;;;;5077110;28;20250;-79
2023/07/10 03:39:06;;;;;;;0.00;0.00;;;;;;;;;;5071509;28;20212;-77
2023/07/10 03:41:33;;;;;;;0.08;0.08;;;;;;;;;;5075817;28;20238;-78
2023/07/10 03:44:00;;;;;;;0.10;0.10;;;;;;;;;;5072355;28;20439;-78
2023/07/10 03:46:26;;;;;;;0.85;0.65;;;;;;;;;;5073953;28;20302;-78
2023/07/10 03:48:53;;;;;;;0.00;0.00;;;;;;;;;;5074617;28;20211;-78
2023/07/10 03:51:19;;;;;;;0.00;0.00;;;;;;;;;;5072470;28;20615;-78
2023/07/10 03:53:46;;;;;;;0.00;0.00;;;;;;;;;;5076263;28;20227;-77
2023/07/10 03:56:14;;;;;;;0.10;0.10;;;;;;;;;;5070293;28;20293;-78
2023/07/10 03:58:41;;;;;;;0.00;0.00;;;;;;;;;;5077406;28;20228;-78
2023/07/10 04:01:08;;;;;;;0.10;0.10;;;;;;;;;;5067908;28;20258;-78
2023/07/10 04:03:35;;;;;;;0.00;0.00;;;;;;;;;;5080101;28;20275;-78
2023/07/10 04:06:02;;;;;;;0.00;0.00;;;;;;;;;;5066905;28;20258;-78
2023/07/10 04:08:30;;;;;;;0.10;0.10;;;;;;;;;;5080981;28;20204;-78
2023/07/10 04:10:57;;;;;;;0.00;0.00;;;;;;;;;;5065603;28;20242;-77
2023/07/10 04:13:25;;;;;;;0.08;0.08;;;;;;;;;;5082294;28;20396;-78
2023/07/10 04:16:09;;;;;;;0.00;0.00;;;;;;;;;;5064543;28;20496;-78
2023/07/10 04:18:37;;;;;;;0.00;0.00;;;;;;;;;;5079166;28;20538;-77
2023/07/10 04:21:04;;;;;;;0.00;0.00;;;;;;;;;;5067693;28;20239;-78
2023/07/10 04:23:31;;;;;;;0.00;0.00;;;;;;;;;;5080385;28;20399;-78
2023/07/10 04:25:57;;;;;;;0.03;0.03;;;;;;;;;;5065942;28;20276;-78
2023/07/10 04:28:25;;;;;;;0.00;0.00;;;;;;;;;;5082200;28;20219;-78
2023/07/10 04:30:52;;;;;;;0.00;0.00;;;;;;;;;;5064254;28;20306;-78
2023/07/10 04:33:19;;;;;;;0.00;0.00;;;;;;;;;;5083487;28;20235;-78
2023/07/10 04:35:52;;;;;;;0.00;0.00;;;;;;;;;;5062264;28;20235;-79
2023/07/10 04:38:18;;;;;;;0.00;0.00;;;;;;;;;;5083878;28;20227;-78
2023/07/10 04:40:51;;;;;;;0.10;0.10;;;;;;;;;;5062415;28;20245;-77
2023/07/10 04:43:18;;;;;;;0.00;0.00;;;;;;;;;;5083561;28;20242;-78
2023/07/10 04:45:45;;;;;;;0.00;0.00;;;;;;;;;;5062376;28;20250;-78
2023/07/10 04:48:12;;;;;;;0.30;0.30;;;;;;;;;;5085984;28;20411;-76
2023/07/10 04:50:38;;;;;;;0.40;0.40;;;;;;;;;;5064455;28;20481;-77
2023/07/10 04:53:04;;;;;;;0.00;0.00;;;;;;;;;;5090718;28;20222;-77
2023/07/10 04:55:31;;;;;;;0.00;0.00;;;;;;;;;;5062496;28;20439;-77
2023/07/10 04:57:58;;;;;;;0.10;0.10;;;;;;;;;;5092225;28;20267;-77
2023/07/10 05:00:24;;;;;;;0.00;0.00;;;;;;;;;;5060436;28;20228;-77
2023/07/10 05:02:52;;;;;;;0.10;0.10;;;;;;;;;;5094108;28;20268;-77
2023/07/10 05:05:18;;;;;;;0.00;0.00;;;;;;;;;;5058439;28;20247;-77
2023/07/10 05:07:44;;;;;;;0.32;0.32;;;;;;;;;;5095807;28;20395;-77
2023/07/10 05:10:11;;;;;;;0.10;0.10;;;;;;;;;;5056422;28;20266;-77
2023/07/10 05:12:37;;;;;;;0.32;0.32;;;;;;;;;;5097489;28;20246;-77
2023/07/10 05:15:04;;;;;;;0.00;0.00;;;;;;;;;;5066210;28;20207;-76
2023/07/10 05:17:30;;;;;;;0.00;0.00;;;;;;;;;;5088188;28;20252;-77
2023/07/10 05:19:58;;;;;;;0.00;0.00;;;;;;;;;;5066095;28;20443;-77
2023/07/10 05:22:25;;;;;;;0.00;0.00;;;;;;;;;;5087985;28;20246;-77
2023/07/10 05:24:51;;;;;;;0.10;0.10;;;;;;;;;;5065949;28;20299;-77
2023/07/10 05:27:18;;;;;;;0.10;0.10;;;;;;;;;;5087959;28;20312;-76
2023/07/10 05:29:44;;;;;;;0.00;0.00;;;;;;;;;;5065500;28;20266;-76
2023/07/10 05:32:11;;;;;;;4.82;4.38;;;;;;;;;;5087831;28;20500;-77
2023/07/10 05:34:37;;;;;;;0.10;0.10;;;;;;;;;;5065858;28;20238;-77
2023/07/10 05:37:06;;;;;;;0.00;0.00;;;;;;;;;;5086693;28;20305;-77
2023/07/10 05:39:32;;;;;;;0.00;0.00;;;;;;;;;;5066064;28;20250;-78
2023/07/10 05:41:58;;;;;;;0.10;0.10;;;;;;;;;;5085050;28;20313;-77
2023/07/10 05:44:25;;;;;;;0.00;0.00;;;;;;;;;;5067818;28;20461;-77
2023/07/10 05:46:51;;;;;;;0.00;0.00;;;;;;;;;;5083044;28;20238;-77
2023/07/10 05:49:18;;;;;;;0.00;0.00;;;;;;;;;;5069392;28;20254;-77
2023/07/10 05:51:44;;;;;;;0.00;0.00;;;;;;;;;;5081249;28;20600;-77
2023/07/10 05:54:12;;;;;;;0.10;0.10;;;;;;;;;;5071440;28;20235;-77
2023/07/10 05:56:38;;;;;;;1.95;0.55;;;;;;;;;;5079321;28;20250;-77
2023/07/10 05:59:05;;;;;;;0.00;0.00;;;;;;;;;;5072795;28;20330;-77
2023/07/10 06:01:31;;;;;;;0.00;0.00;;;;;;;;;;5076577;28;20476;-77
2023/07/10 06:03:57;;;;;;;0.00;0.00;;;;;;;;;;5075542;28;20396;-77
2023/07/10 06:06:24;;;;;;;0.00;0.00;;;;;;;;;;5075465;28;20296;-77
2023/07/10 06:08:50;;;;;;;0.00;0.00;;;;;;;;;;5076569;28;20447;-77
2023/07/10 06:11:18;;;;;;;0.00;0.00;;;;;;;;;;5073530;28;20265;-77
2023/07/10 06:13:45;;;;;;;0.00;0.00;;;;;;;;;;5078180;28;20212;-78
2023/07/10 06:16:11;;;;;;;0.00;0.00;;;;;;;;;;5071752;28;20254;-77
2023/07/10 06:18:38;;;;;;;0.70;0.70;;;;;;;;;;5079579;28;20267;-77
2023/07/10 06:21:04;;;;;;;0.05;0.05;;;;;;;;;;5069785;28;20242;-77
2023/07/10 06:23:31;;;;;;;0.10;0.10;;;;;;;;;;5081634;28;20455;-77
2023/07/10 06:25:58;;;;;;;0.08;0.08;;;;;;;;;;5067422;28;20309;-77
2023/07/10 06:28:26;;;;;;;0.00;0.00;;;;;;;;;;5083751;28;20395;-77
2023/07/10 06:30:54;;;;;;;0.10;0.10;;;;;;;;;;5066713;28;20298;-77
2023/07/10 06:33:21;;;;;;;0.00;0.00;;;;;;;;;;5083934;28;20238;-78
2023/07/10 06:35:47;;;;;;;0.00;0.00;;;;;;;;;;5064743;28;20239;-77
2023/07/10 06:38:13;;;;;;;0.00;0.00;;;;;;;;;;5086131;28;20296;-78
2023/07/10 06:40:40;;;;;;;0.00;0.00;;;;;;;;;;5062720;28;20238;-77
2023/07/10 06:43:06;;;;;;;0.00;0.00;;;;;;;;;;5087978;28;20278;-77
2023/07/10 06:45:34;;;;;;;0.00;0.00;;;;;;;;;;5060580;28;20498;-77
2023/07/10 06:48:00;;;;;;;0.10;0.10;;;;;;;;;;5089725;28;20399;-77
2023/07/10 06:50:27;;;;;;;0.00;0.00;;;;;;;;;;5059528;28;20251;-76
2023/07/10 06:52:53;;;;;;;0.05;0.05;;;;;;;;;;5091095;28;20235;-77
2023/07/10 06:55:20;;;;;;;0.00;0.00;;;;;;;;;;5057467;28;20200;-77
2023/07/10 06:57:46;;;;;;;0.00;0.00;;;;;;;;;;5092776;28;20204;-77
2023/07/10 07:00:14;;;;;;;0.00;0.00;;;;;;;;;;5055070;28;20224;-77
2023/07/10 07:02:43;;;;;;;0.00;0.00;;;;;;;;;;5094752;28;20389;-77
2023/07/10 07:05:11;;;;;;;0.00;0.00;;;;;;;;;;5054534;28;20220;-77
2023/07/10 07:07:38;;;;;;;0.00;0.00;;;;;;;;;;5095188;28;20275;-77
2023/07/10 07:10:06;;;;;;;0.00;0.00;;;;;;;;;;5063783;28;20283;-77
2023/07/10 07:12:32;;;;;;;0.00;0.00;;;;;;;;;;5085646;28;20477;-77
2023/07/10 07:14:59;;;;;;;0.00;0.00;;;;;;;;;;5064051;28;20200;-77
2023/07/10 07:17:25;;;;;;;0.00;0.00;;;;;;;;;;5086008;28;20239;-77
2023/07/10 07:19:53;;;;;;;0.00;0.00;;;;;;;;;;5063193;28;20200;-77
2023/07/10 07:22:20;;;;;;;0.00;0.00;;;;;;;;;;5085807;28;20566;-77
2023/07/10 07:24:48;;;;;;;0.00;0.00;;;;;;;;;;5063703;28;20232;-77
2023/07/10 07:27:17;;;;;;;0.10;0.10;;;;;;;;;;5085854;28;20261;-77
2023/07/10 07:29:44;;;;;;;0.00;0.00;;;;;;;;;;5063950;28;20200;-76
2023/07/10 07:32:11;;;;;;;0.10;0.10;;;;;;;;;;5085739;28;20245;-76
2023/07/10 07:34:37;;;;;;;0.00;0.00;;;;;;;;;;5063661;28;20238;-76
2023/07/10 07:37:06;;;;;;;0.00;0.00;;;;;;;;;;5084111;28;20313;-76
2023/07/10 07:39:32;;;;;;;0.00;0.00;;;;;;;;;;5064060;28;20267;-75
2023/07/10 07:41:59;;;;;;;0.00;0.00;;;;;;;;;;5082749;28;20242;-75
2023/07/10 07:44:25;;;;;;;0.00;0.00;;;;;;;;;;5065932;28;20453;-76
2023/07/10 07:46:52;;;;;;;0.65;0.65;;;;;;;;;;5080821;28;20242;-76
2023/07/10 07:49:18;;;;;;;0.20;0.20;;;;;;;;;;5067919;28;20395;-76
2023/07/10 07:51:44;;;;;;;0.00;0.00;;;;;;;;;;5079054;28;20259;-76
2023/07/10 07:54:14;;;;;;;0.10;0.10;;;;;;;;;;5069991;28;20421;-76
2023/07/10 07:56:41;;;;;;;0.00;0.00;;;;;;;;;;5078123;28;20234;-76
2023/07/10 07:59:07;;;;;;;0.00;0.00;;;;;;;;;;5070231;28;20267;-76
2023/07/10 08:01:33;;;;;;;0.00;0.00;;;;;;;;;;5075628;28;20239;-77
2023/07/10 08:04:00;;;;;;;0.00;0.00;;;;;;;;;;5072973;28;20283;-76
2023/07/10 08:06:27;;;;;;;0.00;0.00;;;;;;;;;;5074088;28;20254;-75
2023/07/10 08:08:53;;;;;;;0.00;0.00;;;;;;;;;;5074193;28;20261;-75
2023/07/10 08:11:21;;;;;;;0.00;0.00;;;;;;;;;;5072421;28;20573;-75
2023/07/10 08:13:47;;;;;;;0.05;0.05;;;;;;;;;;5075810;28;20270;-75
2023/07/10 08:16:14;;;;;;;0.00;0.00;;;;;;;;;;5070620;28;20493;-75
2023/07/10 08:18:43;;;;;;;0.00;0.00;;;;;;;;;;5077828;28;20204;-75
2023/07/10 08:21:11;;;;;;;0.00;0.00;;;;;;;;;;5069412;28;20238;-75
2023/07/10 08:23:38;;;;;;;0.00;0.00;;;;;;;;;;5080315;28;20457;-74
2023/07/10 08:26:05;;;;;;;0.00;0.00;;;;;;;;;;5072122;28;20565;-75
2023/07/10 08:28:32;;;;;;;1.65;1.65;;;;;;;;;;5083794;28;20280;-74
2023/07/10 08:30:59;;;;;;;0.10;0.10;;;;;;;;;;5070356;28;20485;-74
2023/07/10 08:33:25;;;;;;;0.00;0.00;;;;;;;;;;5085526;28;20236;-75
2023/07/10 08:35:55;;;;;;;0.00;0.00;;;;;;;;;;5068334;28;20235;-74
2023/07/10 08:38:22;;;;;;;0.00;0.00;;;;;;;;;;5086264;28;20231;-74
2023/07/10 08:40:50;;;;;;;0.00;0.00;;;;;;;;;;5067073;28;20250;-75
2023/07/10 08:43:33;;;;;;;0.00;0.00;;;;;;;;;;5087796;28;20204;-74
2023/07/10 08:46:06;;;;;;;0.00;0.00;;;;;;;;;;5070086;28;20262;-76
2023/07/10 08:48:35;;;;;;;0.00;0.00;;;;;;;;;;5083614;28;20251;-75
2023/07/10 08:51:04;;;;;;;0.20;0.20;;;;;;;;;;5070432;28;20305;-75
2023/07/10 08:53:32;;;;;;;0.20;0.20;;;;;;;;;;5083220;28;20204;-75
2023/07/10 08:56:00;;;;;;;0.00;0.00;;;;;;;;;;5069946;28;20431;-75
2023/07/10 08:58:29;;;;;;;0.00;0.00;;;;;;;;;;5084556;28;20226;-77
2023/07/10 09:00:57;;;;;;;0.10;0.10;;;;;;;;;;5068894;28;20242;-77
2023/07/10 09:03:32;;;;;;;0.00;0.00;;;;;;;;;;5085289;28;20211;-76
2023/07/10 09:05:59;;;;;;;0.00;0.00;;;;;;;;;;5069491;28;20301;-76
2023/07/10 09:08:27;;;;;;;0.00;0.00;;;;;;;;;;5084781;28;20219;-76
2023/07/10 09:10:55;;;;;;;0.00;0.00;;;;;;;;;;5068111;28;20251;-77
2023/07/10 09:13:24;;;;;;;0.10;0.10;;;;;;;;;;5085559;28;20235;-78
2023/07/10 09:15:52;;;;;;;0.40;0.40;;;;;;;;;;5067296;28;20238;-76
2023/07/10 09:18:21;;;;;;;0.22;0.22;;;;;;;;;;5086370;28;20204;-77
2023/07/10 09:20:53;;;;;;;0.10;0.10;;;;;;;;;;5066382;28;20481;-77
2023/07/10 09:23:21;;;;;;;0.00;0.00;;;;;;;;;;5086873;28;20271;-76
2023/07/10 09:25:55;;;;;;;0.08;0.08;;;;;;;;;;5066919;28;20429;-76
2023/07/10 09:28:22;;;;;;;0.00;0.00;;;;;;;;;;5086184;28;20212;-76
2023/07/10 09:30:52;;;;;;;0.00;0.00;;;;;;;;;;5067450;28;20238;-77
2023/07/10 09:33:22;;;;;;;0.57;0.57;;;;;;;;;;5086604;28;20223;-77
2023/07/10 09:35:50;;;;;;;0.00;0.00;;;;;;;;;;5066062;28;20353;-74
2023/07/10 09:38:19;;;;;;;0.10;0.10;;;;;;;;;;5088799;28;20269;-77
2023/07/10 09:40:51;;;;;;;0.22;0.22;;;;;;;;;;5066526;28;20238;-77
2023/07/10 09:43:19;;;;;;;0.00;0.00;;;;;;;;;;5087064;28;20204;-77
2023/07/10 09:45:49;;;;;;;0.00;0.00;;;;;;;;;;5065091;28;20268;-77
2023/07/10 09:48:24;;;;;;;0.10;0.10;;;;;;;;;;5088070;28;20275;-77
2023/07/10 09:50:53;;;;;;;0.00;0.00;;;;;;;;;;5066510;28;20238;-76
2023/07/10 09:53:48;;;;;;;0.00;0.00;;;;;;;;;;5086565;28;20215;-75
2023/07/10 09:56:21;;;;;;;0.00;0.00;;;;;;;;;;5068354;28;20246;-75
2023/07/10 09:58:55;;;;;;;0.00;0.00;;;;;;;;;;5078556;28;20212;-75
2023/07/10 10:01:24;;;;;;;0.00;0.00;;;;;;;;;;5074762;28;20272;-76
2023/07/10 10:03:52;;;;;;;0.00;0.00;;;;;;;;;;5076860;28;20259;-76
2023/07/10 10:06:22;;;;;;;0.00;0.00;;;;;;;;;;5073995;28;20309;-75
2023/07/10 10:08:49;;;;;;;0.00;0.00;;;;;;;;;;5077599;28;20275;-74
2023/07/10 10:11:16;;;;;;;0.25;0.25;;;;;;;;;;5072904;28;20238;-76
2023/07/10 10:13:44;;;;;;;0.00;0.00;;;;;;;;;;5078777;28;20204;-76
2023/07/10 10:16:15;;;;;;;0.00;0.00;;;;;;;;;;5071326;28;20234;-76
2023/07/10 10:18:43;;;;;;;3.10;2.90;;;;;;;;;;5079841;28;20231;-76
2023/07/10 10:21:11;;;;;;;0.00;0.00;;;;;;;;;;5071529;28;20449;-76
2023/07/10 10:23:40;;;;;;;0.45;0.45;;;;;;;;;;5079719;28;20210;-76
2023/07/10 10:26:14;;;;;;;0.63;0.63;;;;;;;;;;5069882;28;20486;-76
2023/07/10 10:28:44;;;;;;;0.20;0.20;;;;;;;;;;5078943;28;20239;-76
2023/07/10 10:31:12;;;;;;;0.00;0.00;;;;;;;;;;5071252;28;20269;-76
2023/07/10 10:33:41;;;;;;;0.00;0.00;;;;;;;;;;5079319;28;20227;-75
2023/07/10 10:36:14;;;;;;;1.30;1.30;;;;;;;;;;5070842;28;20250;-75
2023/07/10 10:38:46;;;;;;;0.00;0.00;;;;;;;;;;5078865;28;20274;-75
2023/07/10 10:41:21;;;;;;;0.00;0.00;;;;;;;;;;5071555;28;20258;-76
2023/07/10 10:43:51;;;;;;;0.30;0.30;;;;;;;;;;5076769;28;20223;-76
2023/07/10 10:46:34;;;;;;;0.03;0.03;;;;;;;;;;5072355;28;20569;-76
2023/07/10 10:49:09;;;;;;;0.20;0.20;;;;;;;;;;5073474;28;20507;-76
2023/07/10 10:51:38;;;;;;;0.15;0.15;;;;;;;;;;5077544;28;20241;-76
2023/07/10 10:54:11;;;;;;;0.00;0.00;;;;;;;;;;5071907;28;20212;-75
2023/07/10 10:56:41;;;;;;;10.45;1.23;;;;;;;;;;5078296;28;20302;-76
2023/07/10 10:59:16;;;;;;;0.00;0.00;;;;;;;;;;5070606;28;20234;-75
2023/07/10 11:01:45;;;;;;;0.05;0.05;;;;;;;;;;5079258;28;20238;-76
2023/07/10 11:04:15;;;;;;;0.00;0.00;;;;;;;;;;5069786;28;20208;-75
2023/07/10 11:06:45;;;;;;;0.00;0.00;;;;;;;;;;5079195;28;20431;-75
2023/07/10 11:09:15;;;;;;;0.00;0.00;;;;;;;;;;5069803;28;20458;-77
2023/07/10 11:11:41;;;;;;;0.00;0.00;;;;;;;;;;5078572;28;20242;-76
2023/07/10 11:14:08;;;;;;;0.20;0.20;;;;;;;;;;5070534;28;20387;-76
2023/07/10 11:16:35;;;;;;;0.35;0.35;;;;;;;;;;5077016;28;20234;-77
2023/07/10 11:19:03;;;;;;;0.00;0.00;;;;;;;;;;5072314;28;20196;-76
2023/07/10 11:21:29;;;;;;;0.28;0.28;;;;;;;;;;5075423;28;20249;-75
2023/07/10 11:23:56;;;;;;;0.00;0.00;;;;;;;;;;5074066;28;20220;-76
2023/07/10 11:26:29;;;;;;;0.08;0.08;;;;;;;;;;5073756;28;20242;-76
2023/07/10 11:28:57;;;;;;;0.00;0.00;;;;;;;;;;5074001;28;20461;-76
2023/07/10 11:31:29;;;;;;;0.10;0.10;;;;;;;;;;5073550;28;20301;-76
2023/07/10 11:34:09;;;;;;;0.10;0.10;;;;;;;;;;5075238;28;20208;-76
2023/07/10 11:36:37;;;;;;;0.98;0.98;;;;;;;;;;5076939;28;20253;-76
2023/07/10 11:39:11;;;;;;;0.00;0.00;;;;;;;;;;5071769;28;20200;-76
2023/07/10 11:41:39;;;;;;;0.00;0.00;;;;;;;;;;5077280;28;20495;-76
2023/07/10 11:44:17;;;;;;;0.20;0.20;;;;;;;;;;5070880;28;20247;-76
2023/07/10 11:47:03;;;;;;;0.00;0.00;;;;;;;;;;5078739;28;20492;-76
2023/07/10 11:49:44;;;;;;;0.00;0.00;;;;;;;;;;5064861;28;20538;-76
2023/07/10 11:52:27;;;;;;;0.00;0.00;;;;;;;;;;5085384;28;20234;-76
2023/07/10 11:55:01;;;;;;;0.00;0.00;;;;;;;;;;5063315;28;20204;-76
2023/07/10 11:57:33;;;;;;;0.00;0.00;;;;;;;;;;5087113;28;20234;-76
2023/07/10 12:00:01;;;;;;;0.35;0.35;;;;;;;;;;5067701;28;20286;-76
2023/07/10 12:02:29;;;;;;;1.13;1.13;;;;;;;;;;5089649;28;20246;-76
2023/07/10 12:05:00;;;;;;;0.00;0.00;;;;;;;;;;5067224;28;20211;-76
2023/07/10 12:07:27;;;;;;;0.00;0.00;;;;;;;;;;5089341;28;20244;-77
2023/07/10 12:09:57;;;;;;;0.77;0.77;;;;;;;;;;5067255;28;20211;-74
2023/07/10 12:12:23;;;;;;;0.55;0.55;;;;;;;;;;5089568;28;20250;-76
2023/07/10 12:14:52;;;;;;;0.40;0.40;;;;;;;;;;5067028;28;20226;-73
2023/07/10 12:17:19;;;;;;;0.00;0.00;;;;;;;;;;5089652;28;20234;-74
2023/07/10 12:19:46;;;;;;;0.00;0.00;;;;;;;;;;5067344;28;20204;-79
2023/07/10 12:22:19;;;;;;;0.10;0.10;;;;;;;;;;5089199;28;20495;-73
2023/07/10 12:24:49;;;;;;;0.10;0.10;;;;;;;;;;5067225;28;20220;-74
2023/07/10 12:27:15;;;;;;;0.65;0.38;;;;;;;;;;5089099;28;20463;-75
2023/07/10 12:29:48;;;;;;;0.20;0.20;;;;;;;;;;5067212;28;20391;-74
2023/07/10 12:32:15;;;;;;;0.25;0.25;;;;;;;;;;5088976;28;20323;-74
2023/07/10 12:34:42;;;;;;;0.30;0.30;;;;;;;;;;5067018;28;20211;-74
2023/07/10 12:37:10;;;;;;;0.00;0.00;;;;;;;;;;5088971;28;20242;-74
2023/07/10 12:39:36;;;;;;;0.00;0.00;;;;;;;;;;5066608;28;20275;-75
2023/07/10 12:42:03;;;;;;;0.08;0.08;;;;;;;;;;5087138;28;20301;-75
2023/07/10 12:44:30;;;;;;;0.00;0.00;;;;;;;;;;5067964;28;20231;-74
2023/07/10 12:46:58;;;;;;;0.82;0.80;;;;;;;;;;5085626;28;20420;-75
2023/07/10 12:49:28;;;;;;;0.00;0.00;;;;;;;;;;5069449;28;20397;-75
2023/07/10 12:51:55;;;;;;;2.05;0.45;;;;;;;;;;5085043;28;20292;-75
2023/07/10 12:54:22;;;;;;;0.20;0.20;;;;;;;;;;5069679;28;20196;-75
2023/07/10 12:56:51;;;;;;;0.00;0.00;;;;;;;;;;5083331;28;20262;-77
2023/07/10 12:59:19;;;;;;;0.03;0.03;;;;;;;;;;5070957;28;20271;-78
2023/07/10 13:01:49;;;;;;;0.20;0.20;;;;;;;;;;5081983;28;20245;-79
2023/07/10 13:04:22;;;;;;;0.40;0.40;;;;;;;;;;5071457;28;20207;-77
2023/07/10 13:07:00;;;;;;;0.00;0.00;;;;;;;;;;5082825;28;20235;-72
2023/07/10 13:09:26;;;;;;;0.00;0.00;;;;;;;;;;5067582;28;20199;-72
2023/07/10 13:11:55;;;;;;;0.00;0.00;;;;;;;;;;5084218;28;20278;-71
2023/07/10 13:14:24;;;;;;;0.10;0.10;;;;;;;;;;5069275;28;20245;-72
2023/07/10 13:16:51;;;;;;;0.55;0.55;;;;;;;;;;5083290;28;20253;-71
2023/07/10 13:19:17;;;;;;;0.15;0.15;;;;;;;;;;5070723;28;20203;-71
2023/07/10 13:21:44;;;;;;;0.00;0.00;;;;;;;;;;5081468;28;20247;-70
2023/07/10 13:24:12;;;;;;;0.00;0.00;;;;;;;;;;5072435;28;20242;-72
2023/07/10 13:26:39;;;;;;;0.00;0.00;;;;;;;;;;5080002;28;20302;-73
2023/07/10 13:29:10;;;;;;;0.00;0.00;;;;;;;;;;5073469;28;20275;-72
2023/07/10 13:31:37;;;;;;;0.00;0.00;;;;;;;;;;5079653;28;20298;-73
2023/07/10 13:34:03;;;;;;;0.00;0.00;;;;;;;;;;5074363;28;20232;-72
2023/07/10 13:36:29;;;;;;;0.05;0.05;;;;;;;;;;5077166;28;20261;-72
2023/07/10 13:38:59;;;;;;;0.00;0.00;;;;;;;;;;5076411;28;20277;-73
2023/07/10 13:41:27;;;;;;;0.00;0.00;;;;;;;;;;5077124;28;20514;-72
2023/07/10 13:43:54;;;;;;;0.08;0.08;;;;;;;;;;5076567;28;20326;-72
2023/07/10 13:46:21;;;;;;;0.00;0.00;;;;;;;;;;5074922;28;20277;-72
2023/07/10 13:48:49;;;;;;;0.00;0.00;;;;;;;;;;5077887;28;20299;-72
2023/07/10 13:51:15;;;;;;;0.00;0.00;;;;;;;;;;5073118;28;20261;-73
2023/07/10 13:53:43;;;;;;;0.32;0.32;;;;;;;;;;5079452;28;20203;-72
2023/07/10 13:56:12;;;;;;;0.47;0.43;;;;;;;;;;5071630;28;20238;-72
2023/07/10 13:58:40;;;;;;;0.47;0.47;;;;;;;;;;5080175;28;20200;-72
2023/07/10 14:01:06;;;;;;;0.00;0.00;;;;;;;;;;5070469;28;20254;-72
2023/07/10 14:03:35;;;;;;;0.00;0.00;;;;;;;;;;5081940;28;20271;-72
2023/07/10 14:06:01;;;;;;;0.00;0.00;;;;;;;;;;5069256;28;20239;-72
2023/07/10 14:08:29;;;;;;;0.10;0.10;;;;;;;;;;5082876;28;20236;-72
2023/07/10 14:10:55;;;;;;;0.00;0.00;;;;;;;;;;5067415;28;20248;-72
2023/07/10 14:13:22;;;;;;;0.00;0.00;;;;;;;;;;5084469;28;20275;-72
2023/07/10 14:15:53;;;;;;;0.08;0.08;;;;;;;;;;5065411;28;20279;-72
2023/07/10 14:18:22;;;;;;;0.00;0.00;;;;;;;;;;5085469;28;20275;-72
2023/07/10 14:20:49;;;;;;;0.00;0.00;;;;;;;;;;5064997;28;20234;-72
2023/07/10 14:23:15;;;;;;;0.00;0.00;;;;;;;;;;5086024;28;20274;-72
2023/07/10 14:25:42;;;;;;;0.00;0.00;;;;;;;;;;5063519;28;20450;-72
2023/07/10 14:28:13;;;;;;;0.00;0.00;;;;;;;;;;5087408;28;20296;-73
2023/07/10 14:30:39;;;;;;;0.00;0.00;;;;;;;;;;5062724;28;20445;-76
2023/07/10 14:33:07;;;;;;;0.00;0.00;;;;;;;;;;5088566;28;20458;-75
2023/07/10 14:35:33;;;;;;;0.00;0.00;;;;;;;;;;5061343;28;20451;-73
2023/07/10 14:38:00;;;;;;;0.00;0.00;;;;;;;;;;5089935;28;20234;-74
2023/07/10 14:40:26;;;;;;;0.00;0.00;;;;;;;;;;5058869;28;20279;-74
2023/07/10 14:42:52;;;;;;;0.00;0.00;;;;;;;;;;5091584;28;20275;-75
2023/07/10 14:45:19;;;;;;;0.00;0.00;;;;;;;;;;5056670;28;20271;-75
2023/07/10 14:47:46;;;;;;;0.00;0.00;;;;;;;;;;5093306;28;20224;-74